Time;durP1;ratioP1;P1;durP2;ratioP2;P2;SDS_P1;SDS_P2;PMS_P1;PMS_P2;Temp;Humidity;BMP_temperature;BMP_pressure;BME280_temperature;BME280_humidity;BME280_pressure;Samples;Min_cycle;Max_cycle;Signal;HPM_P1;HPM_P2
2022/09/08 00:02:17;;;;;;;;;;;;;;;23.69;65.13;101048.38;7405155;19;1366;-61
2022/09/08 00:04:47;;;;;;;;;;;;;;;23.70;64.96;101062.75;7405397;19;1777;-61
2022/09/08 00:07:16;;;;;;;;;;;;;;;23.70;65.01;101044.69;7404943;19;1623;-61
2022/09/08 00:09:44;;;;;;;;;;;;;;;23.69;64.71;101042.97;7405638;19;1642;-61
2022/09/08 00:12:14;;;;;;;;;;;;;;;23.71;64.73;101040.97;7405482;19;1568;-61
2022/09/08 00:14:42;;;;;;;;;;;;;;;23.70;64.86;101043.84;7401749;19;1844;-60
2022/09/08 00:17:10;;;;;;;;;;;;;;;23.70;65.01;101050.09;7406196;19;1016;-60
2022/09/08 00:19:39;;;;;;;;;;;;;;;23.71;64.92;101045.53;7401089;19;1634;-61
2022/09/08 00:22:09;;;;;;;;;;;;;;;23.71;64.84;101040.97;7405201;19;1548;-60
2022/09/08 00:24:38;;;;;;;;;;;;;;;23.70;64.86;101044.69;7404138;19;1642;-61
2022/09/08 00:27:06;;;;;;;;;;;;;;;23.70;64.80;101043.84;7405020;19;1297;-68
2022/09/08 00:29:34;;;;;;;;;;;;;;;23.65;65.12;101040.78;7402676;19;1635;-68
2022/09/08 00:32:03;;;;;;;;;;;;;;;23.70;64.85;101055.50;7404677;19;1671;-68
2022/09/08 00:34:32;;;;;;;;;;;;;;;23.68;65.01;101052.09;7402458;19;1846;-68
2022/09/08 00:37:00;;;;;;;;;;;;;;;23.66;64.95;101046.03;7405032;19;1626;-68
2022/09/08 00:39:31;;;;;;;;;;;;;;;23.69;64.97;101048.38;7403974;19;1650;-68
2022/09/08 00:41:59;;;;;;;;;;;;;;;23.65;64.72;101054.28;7404250;19;1496;-68
2022/09/08 00:44:39;;;;;;;;;;;;;;;23.65;65.00;101046.16;7404630;19;932;-68
2022/09/08 00:47:08;;;;;;;;;;;;;;;23.69;65.12;101056.47;7404518;19;1757;-68
2022/09/08 00:49:37;;;;;;;;;;;;;;;23.63;65.18;101049.88;7403946;19;1763;-68
2022/09/08 00:52:05;;;;;;;;;;;;;;;23.61;65.21;101037.53;7402674;19;1571;-68
2022/09/08 00:54:37;;;;;;;;;;;;;;;23.59;65.22;101031.44;7402906;19;1855;-68
2022/09/08 00:57:06;;;;;;;;;;;;;;;23.60;65.10;101052.06;7403523;19;1630;-68
2022/09/08 00:59:35;;;;;;;;;;;;;;;23.62;65.13;101052.75;7403463;19;1004;-68
2022/09/08 01:02:04;;;;;;;;;;;;;;;23.58;65.01;101038.72;7402614;19;1737;-68
2022/09/08 01:04:32;;;;;;;;;;;;;;;23.61;65.13;101056.44;7403344;19;1670;-68
2022/09/08 01:12:48;;;;;;;;;;;;;;;23.62;65.04;101036.53;7405205;19;1539;-68
2022/09/08 01:15:18;;;;;;;;;;;;;;;23.67;65.14;101044.16;7398596;19;1848;-68
2022/09/08 01:17:47;;;;;;;;;;;;;;;23.62;64.93;101026.59;7404313;19;1031;-68
2022/09/08 01:20:16;;;;;;;;;;;;;;;23.64;65.17;101045.34;7402361;19;1721;-69
2022/09/08 01:22:52;;;;;;;;;;;;;;;23.66;64.99;101037.91;7401940;19;1630;-68
2022/09/08 01:25:28;;;;;;;;;;;;;;;23.65;64.76;101038.06;7402660;19;1760;-68
2022/09/08 01:28:05;;;;;;;;;;;;;;;23.65;64.84;101030.81;7402210;19;1638;-61
2022/09/08 01:30:33;;;;;;;;;;;;;;;23.63;65.10;101028.28;7401168;19;1543;-61
2022/09/08 01:33:03;;;;;;;;;;;;;;;23.62;65.00;101031.16;7403188;19;1853;-61
2022/09/08 01:35:32;;;;;;;;;;;;;;;23.60;64.89;101028.59;7401111;19;1559;-61
2022/09/08 01:38:01;;;;;;;;;;;;;;;23.62;65.26;101036.53;7409515;19;1094;-61
2022/09/08 01:40:29;;;;;;;;;;;;;;;23.59;65.08;101026.06;7411658;19;918;-61
2022/09/08 01:43:00;;;;;;;;;;;;;;;23.59;64.91;101026.06;7409102;19;1772;-61
2022/09/08 01:45:28;;;;;;;;;;;;;;;23.59;65.13;101007.16;7406728;19;1623;-61
2022/09/08 01:47:57;;;;;;;;;;;;;;;23.60;64.92;101035.84;7409371;19;1642;-61
2022/09/08 01:50:25;;;;;;;;;;;;;;;23.58;65.23;101027.91;7410309;19;1568;-61
2022/09/08 01:52:53;;;;;;;;;;;;;;;23.58;64.96;101027.06;7411408;19;980;-61
2022/09/08 01:55:21;;;;;;;;;;;;;;;23.59;65.25;101036.84;7407196;19;1849;-61
2022/09/08 01:57:50;;;;;;;;;;;;;;;23.58;64.94;101029.78;7409778;19;1705;-61
2022/09/08 02:00:21;;;;;;;;;;;;;;;23.58;65.03;101033.31;7404040;19;1694;-68
2022/09/08 02:02:49;;;;;;;;;;;;;;;23.56;65.25;101024.53;7402558;19;1639;-68
2022/09/08 02:05:17;;;;;;;;;;;;;;;23.56;65.08;101026.38;7405750;19;1631;-68
2022/09/08 02:07:46;;;;;;;;;;;;;;;23.57;65.18;101036.16;7407636;19;1618;-68
2022/09/08 02:10:14;;;;;;;;;;;;;;;23.57;64.92;101036.16;7408962;19;1394;-68
2022/09/08 02:12:42;;;;;;;;;;;;;;;23.57;64.92;101036.16;7408768;19;1630;-68
2022/09/08 02:15:11;;;;;;;;;;;;;;;23.56;64.93;101039.88;7406540;19;1842;-68
2022/09/08 02:17:42;;;;;;;;;;;;;;;23.57;65.30;101028.91;7409679;19;1571;-68
2022/09/08 02:20:11;;;;;;;;;;;;;;;23.56;64.94;101026.38;7410474;19;1012;-68
2022/09/08 02:22:39;;;;;;;;;;;;;;;23.56;65.11;101038.03;7407465;19;1753;-68
2022/09/08 02:25:08;;;;;;;;;;;;;;;23.57;65.18;101028.06;7407916;19;1536;-68
2022/09/08 02:27:36;;;;;;;;;;;;;;;23.57;65.16;101033.47;7409743;19;985;-68
2022/09/08 02:30:06;;;;;;;;;;;;;;;23.59;65.00;101026.88;7408591;19;1654;-68
2022/09/08 02:32:35;;;;;;;;;;;;;;;23.56;65.11;101026.38;7408021;19;1714;-68
2022/09/08 02:35:06;;;;;;;;;;;;;;;23.58;65.14;101032.47;7407063;19;1868;-68
2022/09/08 02:37:35;;;;;;;;;;;;;;;23.51;65.16;101015.22;7409066;19;996;-68
2022/09/08 02:40:04;;;;;;;;;;;;;;;23.55;64.97;101021.97;7409407;19;1043;-61
2022/09/08 02:42:32;;;;;;;;;;;;;;;23.56;64.96;101027.22;7408881;19;1658;-61
2022/09/08 02:45:00;;;;;;;;;;;;;;;23.55;64.96;101022.81;7407788;19;1678;-61
2022/09/08 02:47:28;;;;;;;;;;;;;;;23.55;64.97;101020.13;7408658;19;1529;-61
2022/09/08 02:49:57;;;;;;;;;;;;;;;23.52;64.91;101023.16;7408778;19;1814;-61
2022/09/08 02:52:28;;;;;;;;;;;;;;;23.52;65.16;101008.81;7407699;19;1678;-61
2022/09/08 02:54:56;;;;;;;;;;;;;;;23.54;64.89;101014.91;7405483;19;1860;-61
2022/09/08 02:57:24;;;;;;;;;;;;;;;23.56;64.92;101008.31;7407947;19;1610;-61
2022/09/08 02:59:52;;;;;;;;;;;;;;;23.54;64.88;101007.63;7405523;19;1497;-68
2022/09/08 03:02:21;;;;;;;;;;;;;;;23.55;64.92;101003.09;7402046;19;1678;-61
2022/09/08 03:04:49;;;;;;;;;;;;;;;23.53;64.80;100995.13;7406434;19;1639;-61
2022/09/08 03:07:18;;;;;;;;;;;;;;;23.57;64.85;100991.09;7407342;19;1693;-61
2022/09/08 03:09:51;;;;;;;;;;;;;;;23.51;64.87;100999.00;7407370;19;1524;-61
2022/09/08 03:12:19;;;;;;;;;;;;;;;23.50;64.90;101000.03;7407671;19;1544;-61
2022/09/08 03:14:48;;;;;;;;;;;;;;;23.52;64.96;100993.47;7406856;19;1848;-61
2022/09/08 03:17:16;;;;;;;;;;;;;;;23.51;65.03;100999.00;7407107;19;1383;-61
2022/09/08 03:19:44;;;;;;;;;;;;;;;23.50;65.02;100994.63;7405424;19;1618;-61
2022/09/08 03:22:12;;;;;;;;;;;;;;;23.51;65.00;101016.03;7406919;19;1250;-61
2022/09/08 03:24:42;;;;;;;;;;;;;;;23.50;64.90;101013.53;7407838;19;1033;-61
2022/09/08 03:27:13;;;;;;;;;;;;;;;23.51;65.18;101012.50;7405321;19;1607;-61
2022/09/08 03:29:42;;;;;;;;;;;;;;;23.54;64.75;101004.94;7406835;19;1245;-61
2022/09/08 03:32:10;;;;;;;;;;;;;;;23.53;65.06;101015.91;7405202;19;1560;-61
2022/09/08 03:34:39;;;;;;;;;;;;;;;23.51;65.01;101007.94;7405909;19;1853;-61
2022/09/08 03:37:07;;;;;;;;;;;;;;;23.53;64.92;101005.09;7406175;19;1492;-61
2022/09/08 03:39:35;;;;;;;;;;;;;;;23.52;64.93;101008.81;7406688;19;1556;-61
2022/09/08 03:42:04;;;;;;;;;;;;;;;23.51;65.03;101020.59;7407324;19;1039;-61
2022/09/08 03:44:35;;;;;;;;;;;;;;;23.53;64.92;101022.13;7407286;19;1000;-61
2022/09/08 03:47:05;;;;;;;;;;;;;;;23.51;65.03;101018.75;7406994;19;1540;-61
2022/09/08 03:49:33;;;;;;;;;;;;;;;23.53;65.12;101013.19;7403392;19;1506;-61
2022/09/08 03:52:01;;;;;;;;;;;;;;;23.58;64.76;101024.38;7406762;19;1610;-68
2022/09/08 03:57:10;;;;;;;;;;;;;;;23.53;64.76;101021.28;7404881;19;1441;-68
2022/09/08 03:59:41;;;;;;;;;;;;;;;23.53;64.74;101018.59;7404534;19;1630;-68
2022/09/08 04:02:09;;;;;;;;;;;;;;;23.52;64.62;101019.63;7401826;19;1283;-68
2022/09/08 04:04:38;;;;;;;;;;;;;;;23.53;64.74;101016.72;7405227;19;1770;-68
2022/09/08 04:07:07;;;;;;;;;;;;;;;23.53;64.79;101014.03;7406251;19;1572;-68
2022/09/08 04:09:35;;;;;;;;;;;;;;;23.50;64.74;101013.53;7405258;19;1528;-68
2022/09/08 04:12:04;;;;;;;;;;;;;;;23.53;65.05;101015.91;7405280;19;1646;-69
2022/09/08 04:14:33;;;;;;;;;;;;;;;23.52;64.86;101025.84;7403399;19;1857;-68
2022/09/08 04:17:03;;;;;;;;;;;;;;;23.51;64.76;101021.44;7406306;19;1070;-68
2022/09/08 04:19:32;;;;;;;;;;;;;;;23.51;64.69;101017.91;7404952;19;1761;-68
2022/09/08 04:22:00;;;;;;;;;;;;;;;23.56;64.58;101027.22;7405692;19;1635;-69
2022/09/08 04:24:28;;;;;;;;;;;;;;;23.52;64.61;101033.94;7404302;19;1543;-68
2022/09/08 04:26:57;;;;;;;;;;;;;;;23.53;64.76;101029.38;7405590;19;1157;-68
2022/09/08 04:29:25;;;;;;;;;;;;;;;23.52;64.76;101019.63;7402107;19;1654;-68
2022/09/08 04:31:53;;;;;;;;;;;;;;;23.52;64.86;101038.50;7406009;19;995;-68
2022/09/08 04:34:24;;;;;;;;;;;;;;;23.52;64.60;101041.22;7402321;19;1863;-61
2022/09/08 04:36:52;;;;;;;;;;;;;;;23.50;64.95;101040.53;7404142;19;1635;-68
2022/09/08 04:39:20;;;;;;;;;;;;;;;23.50;64.91;101030.56;7404543;19;1373;-68
2022/09/08 04:41:49;;;;;;;;;;;;;;;23.49;64.82;101047.75;7405167;19;1555;-68
2022/09/08 04:44:17;;;;;;;;;;;;;;;23.49;64.79;101045.06;7404460;19;1555;-68
2022/09/08 04:46:45;;;;;;;;;;;;;;;23.53;64.87;101053.69;7404380;19;1224;-61
2022/09/08 04:49:13;;;;;;;;;;;;;;;23.49;64.68;101042.34;7403339;19;1334;-61
2022/09/08 04:51:45;;;;;;;;;;;;;;;23.52;64.69;101043.91;7402834;19;1396;-61
2022/09/08 04:54:14;;;;;;;;;;;;;;;23.54;64.79;101050.84;7402368;19;1849;-61
2022/09/08 04:56:42;;;;;;;;;;;;;;;23.51;64.50;101044.91;7403855;19;1447;-61
2022/09/08 04:59:10;;;;;;;;;;;;;;;23.54;64.60;101055.41;7404387;19;1443;-61
2022/09/08 05:01:38;;;;;;;;;;;;;;;23.57;64.76;101060.47;7402332;19;1394;-68
2022/09/08 05:04:06;;;;;;;;;;;;;;;23.54;64.75;101031.09;7403082;19;1345;-61
2022/09/08 05:06:35;;;;;;;;;;;;;;;23.56;64.47;101053.38;7402879;19;1452;-61
2022/09/08 05:09:07;;;;;;;;;;;;;;;23.59;64.66;101042.25;7402794;19;1498;-69
2022/09/08 05:11:36;;;;;;;;;;;;;;;23.59;64.46;101048.47;7403793;19;1456;-61
2022/09/08 05:14:04;;;;;;;;;;;;;;;23.60;64.39;101058.28;7410200;19;1432;-61
2022/09/08 05:16:33;;;;;;;;;;;;;;;23.67;64.40;101076.56;7407835;19;1856;-61
2022/09/08 05:19:02;;;;;;;;;;;;;;;23.65;64.50;101068.59;7410490;19;1527;-61
2022/09/08 05:21:32;;;;;;;;;;;;;;;23.65;64.24;101062.38;7410583;19;1445;-61
2022/09/08 05:24:02;;;;;;;;;;;;;;;23.67;64.37;101065.75;7411851;19;944;-61
2022/09/08 05:26:33;;;;;;;;;;;;;;;23.65;64.34;101079.41;7411407;19;1701;-62
2022/09/08 05:29:02;;;;;;;;;;;;;;;23.69;64.10;101064.56;7408860;19;1514;-61
2022/09/08 05:31:31;;;;;;;;;;;;;;;23.70;64.05;101065.44;7411648;19;1018;-61
2022/09/08 05:34:01;;;;;;;;;;;;;;;23.73;63.94;101078.63;7408673;19;1740;-61
2022/09/08 05:36:30;;;;;;;;;;;;;;;23.73;63.95;101065.13;7408323;19;1851;-61
2022/09/08 05:38:59;;;;;;;;;;;;;;;23.73;64.28;101070.50;7411411;19;988;-61
2022/09/08 05:41:27;;;;;;;;;;;;;;;23.76;63.95;101068.34;7411066;19;1682;-61
2022/09/08 05:43:59;;;;;;;;;;;;;;;23.78;63.92;101079.03;7410575;19;1650;-61
2022/09/08 05:46:28;;;;;;;;;;;;;;;23.81;64.09;101074.16;7409829;19;1797;-61
2022/09/08 05:49:01;;;;;;;;;;;;;;;23.82;64.08;101085.81;7410400;19;1638;-61
2022/09/08 05:51:30;;;;;;;;;;;;;;;23.88;63.70;101066.25;7409361;19;1242;-61
2022/09/08 05:54:00;;;;;;;;;;;;;;;23.84;63.80;101069.44;7410097;19;1537;-61
2022/09/08 05:56:29;;;;;;;;;;;;;;;23.86;63.69;101064.72;7408102;19;1838;-61
2022/09/08 05:59:01;;;;;;;;;;;;;;;23.94;63.51;101067.47;7410021;19;1665;-61
2022/09/08 06:01:30;;;;;;;;;;;;;;;23.92;63.83;101066.78;7404880;19;1619;-61
2022/09/08 06:03:59;;;;;;;;;;;;;;;23.92;63.52;101062.22;7410207;19;1621;-62
2022/09/08 06:06:27;;;;;;;;;;;;;;;23.94;63.63;101056.66;7409142;19;1475;-61
2022/09/08 06:08:57;;;;;;;;;;;;;;;23.97;63.71;101056.31;7410205;19;1756;-61
2022/09/08 06:11:26;;;;;;;;;;;;;;;23.95;63.42;101047.53;7409792;19;1792;-61
2022/09/08 06:13:54;;;;;;;;;;;;;;;23.96;63.39;101054.66;7409528;19;1740;-61
2022/09/08 06:16:25;;;;;;;;;;;;;;;24.01;63.61;101063.09;7407755;19;1859;-61
2022/09/08 06:18:54;;;;;;;;;;;;;;;23.97;63.58;101062.59;7409974;19;1548;-61
2022/09/08 06:21:23;;;;;;;;;;;;;;;23.99;63.67;101059.72;7410068;19;1059;-69
2022/09/08 06:23:52;;;;;;;;;;;;;;;23.97;63.77;101067.13;7408592;19;1803;-70
2022/09/08 06:26:37;;;;;;;;;;;;;;;24.00;63.60;101061.41;7407086;19;1789;-69
2022/09/08 06:29:09;;;;;;;;;;;;;;;24.00;63.62;101067.66;7406502;19;1238;-69
2022/09/08 06:31:43;;;;;;;;;;;;;;;23.95;63.55;101064.59;7409410;19;1032;-69
2022/09/08 06:34:15;;;;;;;;;;;;;;;23.97;63.64;101067.13;7408775;19;1371;-69
2022/09/08 06:36:47;;;;;;;;;;;;;;;23.97;63.82;101061.72;7405090;19;1847;-69
2022/09/08 06:39:17;;;;;;;;;;;;;;;24.01;63.59;101079.31;7408135;19;1466;-69
2022/09/08 06:41:48;;;;;;;;;;;;;;;24.00;63.56;101056.03;7408496;19;1070;-70
2022/09/08 06:44:20;;;;;;;;;;;;;;;23.98;63.68;101063.44;7409193;19;1011;-70
2022/09/08 06:46:51;;;;;;;;;;;;;;;23.99;63.61;101070.53;7408415;19;1854;-70
2022/09/08 06:49:19;;;;;;;;;;;;;;;24.00;63.74;101072.22;7408488;19;1316;-69
2022/09/08 06:51:52;;;;;;;;;;;;;;;24.02;63.58;101059.41;7407299;19;1459;-70
2022/09/08 06:54:27;;;;;;;;;;;;;;;24.06;63.63;101071.56;7408072;19;1459;-69
2022/09/08 06:56:59;;;;;;;;;;;;;;;24.07;63.77;101067.00;7406394;19;1861;-69
2022/09/08 06:59:35;;;;;;;;;;;;;;;24.06;63.62;101068.88;7408484;19;1798;-61
2022/09/08 07:02:15;;;;;;;;;;;;;;;24.07;63.73;101078.66;7406669;19;1457;-61
2022/09/08 07:04:45;;;;;;;;;;;;;;;24.02;63.64;101070.22;7407514;19;1277;-61
2022/09/08 07:07:18;;;;;;;;;;;;;;;24.06;63.55;101071.56;7408036;19;1367;-61
2022/09/08 07:09:50;;;;;;;;;;;;;;;24.01;63.45;101069.38;7407102;19;1415;-61
2022/09/08 07:12:25;;;;;;;;;;;;;;;24.07;63.66;101070.56;7404817;19;1250;-61
2022/09/08 07:15:12;;;;;;;;;;;;;;;24.09;63.65;101081.22;7407230;19;1860;-61
2022/09/08 07:17:47;;;;;;;;;;;;;;;24.06;63.80;101082.38;7406796;19;1288;-61
2022/09/08 07:20:16;;;;;;;;;;;;;;;24.11;63.70;101077.31;7405924;19;1785;-62
2022/09/08 07:22:47;;;;;;;;;;;;;;;24.11;63.57;101085.44;7405636;19;1698;-61
2022/09/08 07:25:21;;;;;;;;;;;;;;;24.09;63.45;101090.16;7405959;19;1106;-61
2022/09/08 07:27:53;;;;;;;;;;;;;;;24.11;63.76;101079.19;7407111;19;1411;-61
2022/09/08 07:30:22;;;;;;;;;;;;;;;24.09;63.62;101063.13;7406971;19;1527;-61
2022/09/08 07:32:56;;;;;;;;;;;;;;;24.12;63.75;101076.34;7406544;19;1645;-61
2022/09/08 07:35:28;;;;;;;;;;;;;;;24.11;63.79;101060.28;7404021;19;1860;-61
2022/09/08 07:37:57;;;;;;;;;;;;;;;24.12;63.54;101079.03;7405544;19;1309;-70
2022/09/08 07:40:31;;;;;;;;;;;;;;;24.11;63.64;101077.31;7403884;19;1182;-61
2022/09/08 07:43:02;;;;;;;;;;;;;;;24.15;63.76;101078.72;7403526;19;1673;-61
2022/09/08 07:45:38;;;;;;;;;;;;;;;24.12;63.49;101078.19;7407176;19;1579;-61
2022/09/08 07:48:13;;;;;;;;;;;;;;;24.17;63.87;101086.66;7403341;19;1757;-61
2022/09/08 07:53:33;;;;;;;;;;;;;;;24.16;63.66;101085.81;7403298;19;1683;-70
2022/09/08 07:56:07;;;;;;;;;;;;;;;24.13;63.49;101078.03;7403900;19;1861;-70
2022/09/08 07:58:40;;;;;;;;;;;;;;;24.17;63.89;101084.81;7405791;19;1647;-61
2022/09/08 08:01:12;;;;;;;;;;;;;;;24.16;63.67;101077.69;7403922;19;1680;-60
2022/09/08 08:03:51;;;;;;;;;;;;;;;24.12;63.53;101064.69;7403802;19;1725;-61
2022/09/08 08:06:22;;;;;;;;;;;;;;;24.15;63.82;101065.22;7405447;19;1002;-61
2022/09/08 08:08:58;;;;;;;;;;;;;;;24.17;63.82;101063.19;7405962;19;1697;-61
2022/09/08 08:11:30;;;;;;;;;;;;;;;24.19;63.60;101071.13;7403776;19;1709;-61
2022/09/08 08:14:10;;;;;;;;;;;;;;;24.13;63.87;101067.22;7405779;19;1444;-70
2022/09/08 08:16:46;;;;;;;;;;;;;;;24.16;63.80;101050.69;7404563;19;1852;-70
2022/09/08 08:19:27;;;;;;;;;;;;;;;24.17;63.51;101060.50;7404270;19;1313;-70
2022/09/08 08:21:59;;;;;;;;;;;;;;;24.20;63.52;101060.16;7405207;19;1380;-70
2022/09/08 08:24:31;;;;;;;;;;;;;;;24.16;63.55;101039.88;7406079;19;1312;-70
2022/09/08 08:27:03;;;;;;;;;;;;;;;24.20;63.73;101062.84;7404686;19;1787;-70
2022/09/08 08:29:39;;;;;;;;;;;;;;;24.17;63.70;101052.38;7404628;19;1372;-70
2022/09/08 08:32:11;;;;;;;;;;;;;;;24.18;63.70;101054.06;7405932;19;1314;-70
2022/09/08 08:34:43;;;;;;;;;;;;;;;24.16;63.75;101045.28;7405004;19;1444;-70
2022/09/08 08:37:17;;;;;;;;;;;;;;;24.18;63.68;101037.84;7399926;19;1866;-70
2022/09/08 08:39:47;;;;;;;;;;;;;;;24.20;63.58;101043.09;7405437;19;1015;-70
2022/09/08 08:42:24;;;;;;;;;;;;;;;24.21;63.51;101044.78;7403837;19;1697;-70
2022/09/08 08:45:04;;;;;;;;;;;;;;;24.20;63.49;101035.00;7404754;19;1555;-70
2022/09/08 08:47:38;;;;;;;;;;;;;;;24.19;63.84;101039.56;7412621;19;983;-61
2022/09/08 08:50:22;;;;;;;;;;;;;;;24.21;63.67;101037.53;7412914;19;1780;-61
2022/09/08 08:53:04;;;;;;;;;;;;;;;24.16;63.73;101039.03;7410640;19;1704;-61
2022/09/08 08:55:42;;;;;;;;;;;;;;;24.20;63.73;101035.84;7410632;19;1849;-61
2022/09/08 08:58:22;;;;;;;;;;;;;;;24.17;63.67;101014.56;7407567;19;1571;-61
2022/09/08 09:00:54;;;;;;;;;;;;;;;24.19;63.62;101011.66;7411236;19;1571;-70
2022/09/08 09:03:40;;;;;;;;;;;;;;;24.20;63.71;101025.03;7408571;19;1718;-70
2022/09/08 09:06:17;;;;;;;;;;;;;;;24.20;63.55;101033.13;7412994;19;960;-70
2022/09/08 09:09:00;;;;;;;;;;;;;;;24.19;63.63;101015.25;7409857;19;1904;-61
2022/09/08 09:11:52;;;;;;;;;;;;;;;24.19;63.62;101008.97;7411396;19;1334;-61
2022/09/08 09:14:45;;;;;;;;;;;;;;;24.18;63.81;101010.00;7403953;19;2100;-70
2022/09/08 09:17:20;;;;;;;;;;;;;;;24.18;63.59;101001.88;7407822;19;1872;-61
2022/09/08 09:20:06;;;;;;;;;;;;;;;24.22;63.72;101006.78;7409426;19;1701;-61
2022/09/08 09:22:41;;;;;;;;;;;;;;;24.24;63.66;101005.78;7409453;19;1551;-61
2022/09/08 09:25:13;;;;;;;;;;;;;;;24.18;63.78;100991.06;7409995;19;1646;-70
2022/09/08 09:27:44;;;;;;;;;;;;;;;24.18;63.67;101000.03;7410317;19;905;-70
2022/09/08 09:30:21;;;;;;;;;;;;;;;24.21;63.91;100999.72;7407610;19;1318;-61
2022/09/08 09:32:54;;;;;;;;;;;;;;;24.19;63.93;100980.09;7410880;19;1496;-61
2022/09/08 09:35:43;;;;;;;;;;;;;;;24.21;63.72;100978.09;7411886;19;999;-61
2022/09/08 09:38:24;;;;;;;;;;;;;;;24.22;63.56;100992.44;7408563;19;1666;-61
2022/09/08 09:41:01;;;;;;;;;;;;;;;24.24;63.87;101003.09;7407940;19;1635;-61
2022/09/08 09:43:35;;;;;;;;;;;;;;;24.17;63.80;100987.53;7410676;19;1583;-61
2022/09/08 09:46:20;;;;;;;;;;;;;;;24.24;63.62;100976.91;7407324;19;2282;-61
2022/09/08 09:49:03;;;;;;;;;;;;;;;24.28;63.62;100991.78;7407957;19;1873;-70
2022/09/08 09:51:40;;;;;;;;;;;;;;;24.24;63.51;100987.72;7409503;19;1453;-70
2022/09/08 09:54:20;;;;;;;;;;;;;;;24.25;63.55;100980.44;7410632;19;1555;-70
2022/09/08 09:57:04;;;;;;;;;;;;;;;24.27;63.67;100976.56;7408827;19;1849;-70
2022/09/08 09:59:50;;;;;;;;;;;;;;;24.27;63.64;100976.56;7406339;19;1567;-71
2022/09/08 10:02:34;;;;;;;;;;;;;;;24.27;63.86;100970.31;7408768;19;1454;-60
2022/09/08 10:05:21;;;;;;;;;;;;;;;24.28;63.62;100977.44;7411105;19;1788;-61
2022/09/08 10:08:07;;;;;;;;;;;;;;;24.27;63.77;100983.81;7410934;19;963;-61
2022/09/08 10:10:56;;;;;;;;;;;;;;;24.31;63.83;100972.53;7406121;19;1471;-61
2022/09/08 10:13:36;;;;;;;;;;;;;;;24.30;63.98;100980.81;7410608;19;992;-61
2022/09/08 10:16:15;;;;;;;;;;;;;;;24.27;63.99;100967.63;7409730;19;1860;-60
2022/09/08 10:19:04;;;;;;;;;;;;;;;24.28;63.74;100972.03;7404908;19;1750;-60
2022/09/08 10:21:48;;;;;;;;;;;;;;;24.28;63.81;100969.31;7405994;19;1496;-60
2022/09/08 10:24:29;;;;;;;;;;;;;;;24.28;63.71;100966.63;7405506;19;1578;-69
2022/09/08 10:27:12;;;;;;;;;;;;;;;24.29;63.99;100971.00;7407346;19;1629;-69
2022/09/08 10:30:01;;;;;;;;;;;;;;;24.27;63.84;100959.50;7405790;19;1508;-61
2022/09/08 10:32:47;;;;;;;;;;;;;;;24.29;64.00;100969.16;7408486;19;970;-70
2022/09/08 10:35:28;;;;;;;;;;;;;;;24.26;63.92;100955.13;7406696;19;1391;-69
2022/09/08 10:38:14;;;;;;;;;;;;;;;24.25;63.87;100950.72;7405458;19;1842;-61
2022/09/08 10:40:48;;;;;;;;;;;;;;;24.22;63.82;100955.44;7408599;19;1563;-70
2022/09/08 10:43:36;;;;;;;;;;;;;;;24.25;63.95;100943.44;7405573;19;1626;-71
2022/09/08 10:46:25;;;;;;;;;;;;;;;24.31;63.84;100960.88;7408078;19;1574;-69
2022/09/08 10:49:10;;;;;;;;;;;;;;;24.28;63.97;100950.41;7408449;19;1640;-59
2022/09/08 10:51:48;;;;;;;;;;;;;;;24.30;63.82;100951.06;7407017;19;1567;-59
2022/09/08 10:54:28;;;;;;;;;;;;;;;24.30;63.82;100953.78;7406797;19;1578;-59
2022/09/08 10:57:00;;;;;;;;;;;;;;;24.33;63.94;100950.72;7406398;19;1857;-59
2022/09/08 10:59:42;;;;;;;;;;;;;;;24.26;63.83;100926.25;7406687;19;1579;-60
2022/09/08 11:02:15;;;;;;;;;;;;;;;24.29;63.93;100934.03;7405572;19;1373;-68
2022/09/08 11:05:05;;;;;;;;;;;;;;;24.31;63.97;100934.69;7407722;19;1626;-68
2022/09/08 11:07:43;;;;;;;;;;;;;;;24.27;63.97;100929.78;7405936;19;1655;-69
2022/09/08 11:10:23;;;;;;;;;;;;;;;24.32;64.10;100941.78;7406985;19;1634;-67
2022/09/08 11:13:00;;;;;;;;;;;;;;;24.28;63.77;100926.91;7406773;19;1657;-60
2022/09/08 11:15:49;;;;;;;;;;;;;;;24.25;63.99;100926.41;7406688;19;1638;-60
2022/09/08 11:18:32;;;;;;;;;;;;;;;24.29;63.96;100935.84;7402457;19;3046;-69
2022/09/08 11:21:06;;;;;;;;;;;;;;;24.28;63.89;100907.16;7407511;19;1696;-60
2022/09/08 11:23:39;;;;;;;;;;;;;;;24.26;64.14;100909.19;7407119;19;1867;-60
2022/09/08 11:26:15;;;;;;;;;;;;;;;24.26;64.07;100904.63;7405304;19;1690;-60
2022/09/08 11:28:48;;;;;;;;;;;;;;;24.29;64.06;100922.34;7403767;19;971;-69
2022/09/08 11:31:25;;;;;;;;;;;;;;;24.22;63.95;100885.19;7407691;19;960;-69
2022/09/08 11:34:01;;;;;;;;;;;;;;;24.24;64.12;100895.00;7405113;19;1693;-69
2022/09/08 11:36:40;;;;;;;;;;;;;;;24.29;63.98;100889.91;7406841;19;1853;-69
2022/09/08 11:39:17;;;;;;;;;;;;;;;24.25;63.80;100902.91;7407571;19;929;-69
2022/09/08 11:41:58;;;;;;;;;;;;;;;24.25;63.88;100894.81;7407717;19;1690;-60
2022/09/08 11:44:51;;;;;;;;;;;;;;;24.25;63.98;100883.16;7407249;19;1703;-60
2022/09/08 11:47:36;;;;;;;;;;;;;;;24.28;64.03;100901.75;7408375;19;1030;-69
2022/09/08 11:50:21;;;;;;;;;;;;;;;24.28;64.11;100896.34;7407332;19;2027;-59
2022/09/08 11:53:03;;;;;;;;;;;;;;;24.24;64.15;100889.59;7406996;19;1438;-69
2022/09/08 11:55:44;;;;;;;;;;;;;;;24.30;63.79;100884.34;7403687;19;1651;-69
2022/09/08 11:58:21;;;;;;;;;;;;;;;24.29;63.85;100888.09;7404743;19;1890;-69
2022/09/08 12:01:05;;;;;;;;;;;;;;;24.27;63.85;100879.28;7405500;19;1544;-60
2022/09/08 12:03:53;;;;;;;;;;;;;;;24.29;63.76;100860.19;7405017;19;1341;-60
2022/09/08 12:06:38;;;;;;;;;;;;;;;24.30;63.83;100878.09;7405989;19;1601;-60
2022/09/08 12:09:24;;;;;;;;;;;;;;;24.28;63.99;100867.47;7405062;19;1610;-60
2022/09/08 12:12:05;;;;;;;;;;;;;;;24.32;63.87;100879.63;7405973;19;1572;-59
2022/09/08 12:14:38;;;;;;;;;;;;;;;24.30;63.82;100873.53;7406349;19;1627;-59
2022/09/08 12:17:14;;;;;;;;;;;;;;;24.32;63.97;100873.38;7404875;19;1846;-68
2022/09/08 12:19:51;;;;;;;;;;;;;;;24.30;64.05;100872.72;7402466;19;1331;-69
2022/09/08 12:22:27;;;;;;;;;;;;;;;24.27;63.86;100873.03;7405012;19;1373;-60
2022/09/08 12:25:03;;;;;;;;;;;;;;;24.27;64.04;100878.44;7404808;19;1209;-68
2022/09/08 12:27:40;;;;;;;;;;;;;;;24.28;64.03;100867.47;7405303;19;1142;-69
2022/09/08 12:30:12;;;;;;;;;;;;;;;24.29;63.84;100854.78;7404175;19;1325;-68
2022/09/08 12:32:58;;;;;;;;;;;;;;;24.28;63.99;100843.13;7404056;19;1259;-59
2022/09/08 12:35:31;;;;;;;;;;;;;;;24.27;63.79;100854.94;7403863;19;1340;-59
2022/09/08 12:38:01;;;;;;;;;;;;;;;24.27;64.06;100846.84;7401854;19;1856;-68
2022/09/08 12:40:50;;;;;;;;;;;;;;;24.26;63.98;100838.94;7402965;19;1618;-69
2022/09/08 12:43:22;;;;;;;;;;;;;;;24.27;64.10;100844.13;7401194;19;1804;-69
2022/09/08 12:46:02;;;;;;;;;;;;;;;24.29;64.09;100843.97;7404507;19;1391;-69
2022/09/08 12:48:32;;;;;;;;;;;;;;;24.27;64.06;100829.78;7404273;19;1392;-60
2022/09/08 12:51:04;;;;;;;;;;;;;;;24.31;64.10;100836.53;7403386;19;1403;-60
2022/09/08 12:53:47;;;;;;;;;;;;;;;24.30;64.05;100826.75;7402306;19;1569;-60
2022/09/08 12:56:21;;;;;;;;;;;;;;;24.30;64.00;100829.47;7403934;19;1392;-60
2022/09/08 12:59:02;;;;;;;;;;;;;;;24.30;63.91;100834.88;7403278;19;1855;-60
2022/09/08 13:01:34;;;;;;;;;;;;;;;24.30;63.78;100838.41;7403504;19;1472;-60
2022/09/08 13:04:09;;;;;;;;;;;;;;;24.29;63.90;100827.75;7401539;19;1642;-60
2022/09/08 13:06:44;;;;;;;;;;;;;;;24.27;63.97;100830.63;7402980;19;1614;-59
2022/09/08 13:09:21;;;;;;;;;;;;;;;24.29;63.98;100828.63;7403258;19;1622;-60
2022/09/08 13:12:01;;;;;;;;;;;;;;;24.31;64.21;100839.25;7403742;19;1571;-69
2022/09/08 13:14:42;;;;;;;;;;;;;;;24.29;64.12;100839.44;7403529;19;1605;-60
2022/09/08 13:17:14;;;;;;;;;;;;;;;24.28;64.11;100834.19;7402566;19;1850;-60
2022/09/08 13:19:53;;;;;;;;;;;;;;;24.28;64.16;100831.50;7403523;19;1653;-60
2022/09/08 13:22:26;;;;;;;;;;;;;;;24.26;64.07;100828.94;7402216;19;1706;-60
2022/09/08 13:25:00;;;;;;;;;;;;;;;24.27;64.04;100833.31;7404185;19;1662;-60
2022/09/08 13:27:44;;;;;;;;;;;;;;;24.24;64.17;100840.94;7404905;19;1023;-60
2022/09/08 13:30:18;;;;;;;;;;;;;;;24.30;64.22;100853.78;7402041;19;1671;-60
2022/09/08 13:32:58;;;;;;;;;;;;;;;24.26;64.06;100841.63;7399301;19;1752;-60